sensor_id;sensor_type;location;lat;lon;timestamp;P1;durP1;ratioP1;P2;durP2;ratioP2
46282;SDS011;32017;43.700;11.820;2022-07-11T00:01:51;0.60;;;0.60;;
46282;SDS011;32017;43.700;11.820;2022-07-11T00:04:12;0.70;;;0.70;;
46282;SDS011;32017;43.700;11.820;2022-07-11T00:06:32;0.60;;;0.60;;
46282;SDS011;32017;43.700;11.820;2022-07-11T00:08:55;1.38;;;0.70;;
46282;SDS011;32017;43.700;11.820;2022-07-11T00:11:16;0.60;;;0.60;;
46282;SDS011;32017;43.700;11.820;2022-07-11T00:13:36;1.35;;;1.25;;
46282;SDS011;32017;43.700;11.820;2022-07-11T00:15:58;0.60;;;0.60;;
46282;SDS011;32017;43.700;11.820;2022-07-11T00:18:19;0.70;;;0.70;;
46282;SDS011;32017;43.700;11.820;2022-07-11T00:20:40;0.70;;;0.70;;
46282;SDS011;32017;43.700;11.820;2022-07-11T00:23:01;0.60;;;0.60;;
46282;SDS011;32017;43.700;11.820;2022-07-11T00:25:21;0.60;;;0.60;;
46282;SDS011;32017;43.700;11.820;2022-07-11T00:27:42;1.33;;;0.70;;
46282;SDS011;32017;43.700;11.820;2022-07-11T00:30:09;0.70;;;0.70;;
46282;SDS011;32017;43.700;11.820;2022-07-11T00:32:31;0.70;;;0.70;;
46282;SDS011;32017;43.700;11.820;2022-07-11T00:34:52;2.80;;;0.70;;
46282;SDS011;32017;43.700;11.820;2022-07-11T00:37:13;2.35;;;0.70;;
46282;SDS011;32017;43.700;11.820;2022-07-11T00:39:35;0.70;;;0.70;;
46282;SDS011;32017;43.700;11.820;2022-07-11T00:41:56;0.77;;;0.60;;
46282;SDS011;32017;43.700;11.820;2022-07-11T00:44:16;2.17;;;0.70;;
46282;SDS011;32017;43.700;11.820;2022-07-11T00:46:37;1.48;;;0.77;;
46282;SDS011;32017;43.700;11.820;2022-07-11T00:48:58;0.70;;;0.70;;
46282;SDS011;32017;43.700;11.820;2022-07-11T00:51:21;1.10;;;0.70;;
46282;SDS011;32017;43.700;11.820;2022-07-11T00:53:42;0.70;;;0.70;;
46282;SDS011;32017;43.700;11.820;2022-07-11T00:56:05;0.70;;;0.70;;
46282;SDS011;32017;43.700;11.820;2022-07-11T00:58:28;0.70;;;0.70;;
46282;SDS011;32017;43.700;11.820;2022-07-11T01:00:49;0.70;;;0.70;;
46282;SDS011;32017;43.700;11.820;2022-07-11T01:03:11;0.70;;;0.70;;
46282;SDS011;32017;43.700;11.820;2022-07-11T01:05:33;0.73;;;0.73;;
46282;SDS011;32017;43.700;11.820;2022-07-11T01:07:56;0.70;;;0.70;;
46282;SDS011;32017;43.700;11.820;2022-07-11T01:10:16;0.70;;;0.70;;
46282;SDS011;32017;43.700;11.820;2022-07-11T01:15:02;0.70;;;0.70;;
46282;SDS011;32017;43.700;11.820;2022-07-11T01:17:23;2.42;;;0.98;;
46282;SDS011;32017;43.700;11.820;2022-07-11T01:19:45;0.77;;;0.70;;
46282;SDS011;32017;43.700;11.820;2022-07-11T01:22:06;0.70;;;0.70;;
46282;SDS011;32017;43.700;11.820;2022-07-11T01:24:27;0.70;;;0.70;;
46282;SDS011;32017;43.700;11.820;2022-07-11T01:26:48;0.70;;;0.70;;
46282;SDS011;32017;43.700;11.820;2022-07-11T01:29:13;1.08;;;0.70;;
46282;SDS011;32017;43.700;11.820;2022-07-11T01:31:34;0.60;;;0.60;;
46282;SDS011;32017;43.700;11.820;2022-07-11T01:33:58;1.50;;;0.70;;
46282;SDS011;32017;43.700;11.820;2022-07-11T01:36:20;1.20;;;0.88;;
46282;SDS011;32017;43.700;11.820;2022-07-11T01:38:40;3.15;;;0.95;;
46282;SDS011;32017;43.700;11.820;2022-07-11T01:43:25;0.70;;;0.70;;
46282;SDS011;32017;43.700;11.820;2022-07-11T01:45:49;0.70;;;0.70;;
46282;SDS011;32017;43.700;11.820;2022-07-11T01:48:11;0.85;;;0.85;;
46282;SDS011;32017;43.700;11.820;2022-07-11T01:50:32;1.50;;;1.10;;
46282;SDS011;32017;43.700;11.820;2022-07-11T01:52:53;0.80;;;0.80;;
46282;SDS011;32017;43.700;11.820;2022-07-11T01:55:15;0.70;;;0.70;;
46282;SDS011;32017;43.700;11.820;2022-07-11T01:57:35;0.80;;;0.80;;
46282;SDS011;32017;43.700;11.820;2022-07-11T01:59:55;0.70;;;0.70;;
46282;SDS011;32017;43.700;11.820;2022-07-11T02:02:17;1.65;;;0.80;;
46282;SDS011;32017;43.700;11.820;2022-07-11T02:04:39;1.08;;;0.70;;
46282;SDS011;32017;43.700;11.820;2022-07-11T02:07:00;1.00;;;1.00;;
46282;SDS011;32017;43.700;11.820;2022-07-11T02:09:21;1.50;;;0.98;;
46282;SDS011;32017;43.700;11.820;2022-07-11T02:11:42;0.77;;;0.77;;
46282;SDS011;32017;43.700;11.820;2022-07-11T02:14:03;1.38;;;0.70;;
46282;SDS011;32017;43.700;11.820;2022-07-11T02:16:23;0.68;;;0.68;;
46282;SDS011;32017;43.700;11.820;2022-07-11T02:18:45;1.10;;;0.80;;
46282;SDS011;32017;43.700;11.820;2022-07-11T02:21:06;0.70;;;0.70;;
46282;SDS011;32017;43.700;11.820;2022-07-11T02:23:27;1.23;;;0.70;;
46282;SDS011;32017;43.700;11.820;2022-07-11T02:25:48;0.80;;;0.80;;
46282;SDS011;32017;43.700;11.820;2022-07-11T02:28:10;0.70;;;0.70;;
46282;SDS011;32017;43.700;11.820;2022-07-11T02:30:31;0.70;;;0.70;;
46282;SDS011;32017;43.700;11.820;2022-07-11T02:32:52;0.80;;;0.80;;
46282;SDS011;32017;43.700;11.820;2022-07-11T02:35:13;0.80;;;0.80;;
46282;SDS011;32017;43.700;11.820;2022-07-11T02:37:34;0.70;;;0.70;;
46282;SDS011;32017;43.700;11.820;2022-07-11T02:39:55;0.60;;;0.60;;
46282;SDS011;32017;43.700;11.820;2022-07-11T02:42:15;0.85;;;0.85;;
46282;SDS011;32017;43.700;11.820;2022-07-11T02:44:36;2.47;;;0.80;;
46282;SDS011;32017;43.700;11.820;2022-07-11T02:46:57;0.70;;;0.70;;
46282;SDS011;32017;43.700;11.820;2022-07-11T02:49:17;0.70;;;0.70;;
46282;SDS011;32017;43.700;11.820;2022-07-11T02:51:39;0.70;;;0.70;;
46282;SDS011;32017;43.700;11.820;2022-07-11T02:54:00;0.70;;;0.70;;
46282;SDS011;32017;43.700;11.820;2022-07-11T02:56:20;0.70;;;0.70;;
46282;SDS011;32017;43.700;11.820;2022-07-11T02:58:41;0.70;;;0.70;;
46282;SDS011;32017;43.700;11.820;2022-07-11T03:01:03;0.75;;;0.75;;
46282;SDS011;32017;43.700;11.820;2022-07-11T03:05:45;2.80;;;0.80;;
46282;SDS011;32017;43.700;11.820;2022-07-11T03:08:06;0.80;;;0.80;;
46282;SDS011;32017;43.700;11.820;2022-07-11T03:10:28;0.70;;;0.70;;
46282;SDS011;32017;43.700;11.820;2022-07-11T03:12:50;1.42;;;0.80;;
46282;SDS011;32017;43.700;11.820;2022-07-11T03:15:10;1.55;;;0.80;;
46282;SDS011;32017;43.700;11.820;2022-07-11T03:17:31;0.70;;;0.70;;
46282;SDS011;32017;43.700;11.820;2022-07-11T03:19:52;0.80;;;0.80;;
46282;SDS011;32017;43.700;11.820;2022-07-11T03:22:14;0.80;;;0.80;;
46282;SDS011;32017;43.700;11.820;2022-07-11T03:26:57;0.70;;;0.70;;
46282;SDS011;32017;43.700;11.820;2022-07-11T03:29:18;0.80;;;0.80;;
46282;SDS011;32017;43.700;11.820;2022-07-11T03:31:39;0.70;;;0.70;;
46282;SDS011;32017;43.700;11.820;2022-07-11T03:34:01;1.20;;;0.80;;
46282;SDS011;32017;43.700;11.820;2022-07-11T03:36:21;2.70;;;0.70;;
46282;SDS011;32017;43.700;11.820;2022-07-11T03:38:42;0.70;;;0.70;;
46282;SDS011;32017;43.700;11.820;2022-07-11T03:43:51;0.88;;;0.88;;
46282;SDS011;32017;43.700;11.820;2022-07-11T03:46:11;1.65;;;0.80;;
46282;SDS011;32017;43.700;11.820;2022-07-11T03:48:32;2.67;;;0.70;;
46282;SDS011;32017;43.700;11.820;2022-07-11T03:50:53;0.90;;;0.90;;
46282;SDS011;32017;43.700;11.820;2022-07-11T03:53:14;0.73;;;0.73;;
46282;SDS011;32017;43.700;11.820;2022-07-11T03:55:35;0.90;;;0.90;;
46282;SDS011;32017;43.700;11.820;2022-07-11T03:57:59;0.70;;;0.70;;
46282;SDS011;32017;43.700;11.820;2022-07-11T04:00:19;1.48;;;0.80;;
46282;SDS011;32017;43.700;11.820;2022-07-11T04:02:41;3.03;;;0.85;;
46282;SDS011;32017;43.700;11.820;2022-07-11T04:05:04;0.73;;;0.70;;
46282;SDS011;32017;43.700;11.820;2022-07-11T04:07:25;0.80;;;0.80;;
46282;SDS011;32017;43.700;11.820;2022-07-11T04:09:46;0.90;;;0.90;;
46282;SDS011;32017;43.700;11.820;2022-07-11T04:12:07;1.50;;;0.80;;
46282;SDS011;32017;43.700;11.820;2022-07-11T04:14:28;0.80;;;0.80;;
46282;SDS011;32017;43.700;11.820;2022-07-11T04:16:48;0.77;;;0.77;;
46282;SDS011;32017;43.700;11.820;2022-07-11T04:19:10;0.70;;;0.70;;
46282;SDS011;32017;43.700;11.820;2022-07-11T04:21:31;1.33;;;0.80;;
46282;SDS011;32017;43.700;11.820;2022-07-11T04:23:54;1.10;;;0.70;;
46282;SDS011;32017;43.700;11.820;2022-07-11T04:26:14;0.70;;;0.70;;
46282;SDS011;32017;43.700;11.820;2022-07-11T04:28:36;0.82;;;0.70;;
46282;SDS011;32017;43.700;11.820;2022-07-11T04:30:56;0.70;;;0.70;;
46282;SDS011;32017;43.700;11.820;2022-07-11T04:33:17;1.48;;;0.73;;
46282;SDS011;32017;43.700;11.820;2022-07-11T04:35:39;0.98;;;0.98;;
46282;SDS011;32017;43.700;11.820;2022-07-11T04:38:00;0.77;;;0.77;;
46282;SDS011;32017;43.700;11.820;2022-07-11T04:40:21;0.80;;;0.80;;
46282;SDS011;32017;43.700;11.820;2022-07-11T04:42:43;0.80;;;0.80;;
46282;SDS011;32017;43.700;11.820;2022-07-11T04:45:04;0.90;;;0.90;;
46282;SDS011;32017;43.700;11.820;2022-07-11T04:47:24;0.90;;;0.90;;
46282;SDS011;32017;43.700;11.820;2022-07-11T04:49:45;1.50;;;0.88;;
46282;SDS011;32017;43.700;11.820;2022-07-11T04:52:07;0.70;;;0.70;;
46282;SDS011;32017;43.700;11.820;2022-07-11T04:54:27;2.05;;;0.80;;
46282;SDS011;32017;43.700;11.820;2022-07-11T04:56:48;0.90;;;0.90;;
46282;SDS011;32017;43.700;11.820;2022-07-11T04:59:08;1.15;;;0.80;;
46282;SDS011;32017;43.700;11.820;2022-07-11T05:01:30;0.80;;;0.80;;
46282;SDS011;32017;43.700;11.820;2022-07-11T05:03:51;0.80;;;0.80;;
46282;SDS011;32017;43.700;11.820;2022-07-11T05:06:12;0.70;;;0.70;;
46282;SDS011;32017;43.700;11.820;2022-07-11T05:08:35;0.80;;;0.80;;
46282;SDS011;32017;43.700;11.820;2022-07-11T05:10:57;0.70;;;0.70;;
46282;SDS011;32017;43.700;11.820;2022-07-11T05:13:18;0.80;;;0.80;;
46282;SDS011;32017;43.700;11.820;2022-07-11T05:15:38;1.00;;;0.90;;
46282;SDS011;32017;43.700;11.820;2022-07-11T05:17:59;0.80;;;0.80;;
46282;SDS011;32017;43.700;11.820;2022-07-11T05:20:22;1.40;;;0.80;;
46282;SDS011;32017;43.700;11.820;2022-07-11T05:22:43;0.80;;;0.80;;
46282;SDS011;32017;43.700;11.820;2022-07-11T05:25:05;0.75;;;0.75;;
46282;SDS011;32017;43.700;11.820;2022-07-11T05:27:26;3.43;;;0.93;;
46282;SDS011;32017;43.700;11.820;2022-07-11T05:29:47;1.48;;;0.90;;
46282;SDS011;32017;43.700;11.820;2022-07-11T05:32:08;1.98;;;0.90;;
46282;SDS011;32017;43.700;11.820;2022-07-11T05:34:29;5.93;;;1.27;;
46282;SDS011;32017;43.700;11.820;2022-07-11T05:36:51;5.15;;;0.80;;
46282;SDS011;32017;43.700;11.820;2022-07-11T05:39:13;0.95;;;0.95;;
46282;SDS011;32017;43.700;11.820;2022-07-11T05:41:35;2.83;;;0.82;;
46282;SDS011;32017;43.700;11.820;2022-07-11T05:43:56;1.90;;;0.90;;
46282;SDS011;32017;43.700;11.820;2022-07-11T05:46:16;3.42;;;0.90;;
46282;SDS011;32017;43.700;11.820;2022-07-11T05:48:39;0.90;;;0.90;;
46282;SDS011;32017;43.700;11.820;2022-07-11T05:50:59;1.13;;;0.80;;
46282;SDS011;32017;43.700;11.820;2022-07-11T05:53:21;0.98;;;0.95;;
46282;SDS011;32017;43.700;11.820;2022-07-11T05:55:43;1.15;;;0.80;;
46282;SDS011;32017;43.700;11.820;2022-07-11T06:00:50;1.00;;;0.80;;
46282;SDS011;32017;43.700;11.820;2022-07-11T06:03:12;0.80;;;0.70;;
46282;SDS011;32017;43.700;11.820;2022-07-11T06:05:36;4.13;;;0.80;;
46282;SDS011;32017;43.700;11.820;2022-07-11T06:11:02;0.80;;;0.80;;
46282;SDS011;32017;43.700;11.820;2022-07-11T06:13:25;0.80;;;0.80;;
46282;SDS011;32017;43.700;11.820;2022-07-11T06:15:45;0.80;;;0.80;;
46282;SDS011;32017;43.700;11.820;2022-07-11T06:18:09;1.90;;;1.55;;
46282;SDS011;32017;43.700;11.820;2022-07-11T06:20:31;3.50;;;0.73;;
46282;SDS011;32017;43.700;11.820;2022-07-11T06:27:40;1.30;;;0.70;;
46282;SDS011;32017;43.700;11.820;2022-07-11T06:35:53;0.70;;;0.70;;
46282;SDS011;32017;43.700;11.820;2022-07-11T06:38:29;1.75;;;0.70;;
46282;SDS011;32017;43.700;11.820;2022-07-11T06:40:49;1.33;;;0.60;;
46282;SDS011;32017;43.700;11.820;2022-07-11T06:43:10;0.60;;;0.60;;
46282;SDS011;32017;43.700;11.820;2022-07-11T06:45:31;0.57;;;0.57;;
46282;SDS011;32017;43.700;11.820;2022-07-11T06:47:53;0.60;;;0.60;;
46282;SDS011;32017;43.700;11.820;2022-07-11T06:50:13;1.98;;;0.60;;
46282;SDS011;32017;43.700;11.820;2022-07-11T06:52:35;1.90;;;0.60;;
46282;SDS011;32017;43.700;11.820;2022-07-11T06:54:56;0.73;;;0.60;;
46282;SDS011;32017;43.700;11.820;2022-07-11T06:57:18;0.50;;;0.50;;
46282;SDS011;32017;43.700;11.820;2022-07-11T06:59:40;0.52;;;0.47;;
46282;SDS011;32017;43.700;11.820;2022-07-11T07:02:00;0.40;;;0.40;;
46282;SDS011;32017;43.700;11.820;2022-07-11T07:04:22;0.55;;;0.55;;
46282;SDS011;32017;43.700;11.820;2022-07-11T07:15:06;1.45;;;0.40;;
46282;SDS011;32017;43.700;11.820;2022-07-11T07:17:27;2.28;;;0.40;;
46282;SDS011;32017;43.700;11.820;2022-07-11T07:19:48;0.40;;;0.40;;
46282;SDS011;32017;43.700;11.820;2022-07-11T07:22:11;3.20;;;0.40;;
46282;SDS011;32017;43.700;11.820;2022-07-11T07:24:37;0.50;;;0.50;;
46282;SDS011;32017;43.700;11.820;2022-07-11T07:29:59;0.40;;;0.40;;
46282;SDS011;32017;43.700;11.820;2022-07-11T07:35:22;0.40;;;0.40;;
46282;SDS011;32017;43.700;11.820;2022-07-11T07:37:42;1.10;;;0.40;;
46282;SDS011;32017;43.700;11.820;2022-07-11T07:40:03;0.40;;;0.40;;
46282;SDS011;32017;43.700;11.820;2022-07-11T07:42:23;0.77;;;0.40;;
46282;SDS011;32017;43.700;11.820;2022-07-11T07:44:43;0.30;;;0.30;;
46282;SDS011;32017;43.700;11.820;2022-07-11T07:49:55;0.40;;;0.40;;
46282;SDS011;32017;43.700;11.820;2022-07-11T07:52:32;0.40;;;0.40;;
46282;SDS011;32017;43.700;11.820;2022-07-11T07:57:54;2.35;;;0.40;;
46282;SDS011;32017;43.700;11.820;2022-07-11T08:00:29;1.30;;;0.40;;
46282;SDS011;32017;43.700;11.820;2022-07-11T08:03:22;1.35;;;0.82;;
46282;SDS011;32017;43.700;11.820;2022-07-11T08:05:59;0.70;;;0.32;;
46282;SDS011;32017;43.700;11.820;2022-07-11T08:13:51;0.40;;;0.40;;
46282;SDS011;32017;43.700;11.820;2022-07-11T08:16:13;1.65;;;0.40;;
46282;SDS011;32017;43.700;11.820;2022-07-11T08:18:33;1.95;;;0.30;;
46282;SDS011;32017;43.700;11.820;2022-07-11T08:20:57;0.30;;;0.30;;
46282;SDS011;32017;43.700;11.820;2022-07-11T08:26:20;0.38;;;0.30;;
46282;SDS011;32017;43.700;11.820;2022-07-11T08:34:36;1.00;;;0.30;;
46282;SDS011;32017;43.700;11.820;2022-07-11T08:37:11;0.60;;;0.30;;
46282;SDS011;32017;43.700;11.820;2022-07-11T08:39:31;0.30;;;0.30;;
46282;SDS011;32017;43.700;11.820;2022-07-11T08:42:06;0.30;;;0.30;;
46282;SDS011;32017;43.700;11.820;2022-07-11T08:44:43;1.65;;;0.30;;
46282;SDS011;32017;43.700;11.820;2022-07-11T08:47:18;0.32;;;0.30;;
46282;SDS011;32017;43.700;11.820;2022-07-11T08:49:39;1.50;;;0.32;;
46282;SDS011;32017;43.700;11.820;2022-07-11T08:52:03;0.30;;;0.30;;
46282;SDS011;32017;43.700;11.820;2022-07-11T08:54:26;0.47;;;0.30;;
46282;SDS011;32017;43.700;11.820;2022-07-11T08:56:47;0.60;;;0.57;;
46282;SDS011;32017;43.700;11.820;2022-07-11T08:59:09;1.35;;;0.40;;
46282;SDS011;32017;43.700;11.820;2022-07-11T09:04:23;0.30;;;0.30;;
46282;SDS011;32017;43.700;11.820;2022-07-11T09:06:46;0.82;;;0.30;;
46282;SDS011;32017;43.700;11.820;2022-07-11T09:11:52;0.30;;;0.30;;
46282;SDS011;32017;43.700;11.820;2022-07-11T09:14:27;0.40;;;0.30;;
46282;SDS011;32017;43.700;11.820;2022-07-11T09:17:02;0.70;;;0.30;;
46282;SDS011;32017;43.700;11.820;2022-07-11T09:19:24;0.28;;;0.28;;
46282;SDS011;32017;43.700;11.820;2022-07-11T09:30:50;1.27;;;0.30;;
46282;SDS011;32017;43.700;11.820;2022-07-11T09:33:13;0.25;;;0.25;;
46282;SDS011;32017;43.700;11.820;2022-07-11T09:38:22;0.30;;;0.30;;
46282;SDS011;32017;43.700;11.820;2022-07-11T09:40:47;0.40;;;0.30;;
46282;SDS011;32017;43.700;11.820;2022-07-11T09:46:05;1.02;;;0.40;;
46282;SDS011;32017;43.700;11.820;2022-07-11T09:51:13;3.60;;;0.20;;
46282;SDS011;32017;43.700;11.820;2022-07-11T09:54:02;0.25;;;0.20;;
46282;SDS011;32017;43.700;11.820;2022-07-11T09:59:02;0.22;;;0.22;;
46282;SDS011;32017;43.700;11.820;2022-07-11T10:01:25;0.30;;;0.30;;
46282;SDS011;32017;43.700;11.820;2022-07-11T10:03:47;0.22;;;0.22;;
46282;SDS011;32017;43.700;11.820;2022-07-11T10:06:08;2.67;;;0.30;;
46282;SDS011;32017;43.700;11.820;2022-07-11T10:11:47;0.30;;;0.30;;
46282;SDS011;32017;43.700;11.820;2022-07-11T10:14:22;0.55;;;0.22;;
46282;SDS011;32017;43.700;11.820;2022-07-11T10:32:30;0.25;;;0.20;;
46282;SDS011;32017;43.700;11.820;2022-07-11T10:37:47;0.35;;;0.35;;
46282;SDS011;32017;43.700;11.820;2022-07-11T10:43:07;1.10;;;0.20;;
46282;SDS011;32017;43.700;11.820;2022-07-11T10:59:24;3.20;;;0.20;;
46282;SDS011;32017;43.700;11.820;2022-07-11T11:02:09;2.00;;;0.25;;
46282;SDS011;32017;43.700;11.820;2022-07-11T11:07:32;0.57;;;0.30;;
46282;SDS011;32017;43.700;11.820;2022-07-11T11:13:32;1.38;;;0.20;;
46282;SDS011;32017;43.700;11.820;2022-07-11T11:16:33;0.20;;;0.20;;
46282;SDS011;32017;43.700;11.820;2022-07-11T11:18:58;0.20;;;0.20;;
46282;SDS011;32017;43.700;11.820;2022-07-11T11:21:40;0.20;;;0.20;;
46282;SDS011;32017;43.700;11.820;2022-07-11T11:24:22;0.20;;;0.20;;
46282;SDS011;32017;43.700;11.820;2022-07-11T11:26:47;0.20;;;0.20;;
46282;SDS011;32017;43.700;11.820;2022-07-11T11:29:08;1.08;;;0.20;;
46282;SDS011;32017;43.700;11.820;2022-07-11T11:31:29;0.20;;;0.20;;
46282;SDS011;32017;43.700;11.820;2022-07-11T11:33:51;0.20;;;0.20;;
46282;SDS011;32017;43.700;11.820;2022-07-11T11:36:11;0.88;;;0.25;;
46282;SDS011;32017;43.700;11.820;2022-07-11T11:38:33;0.20;;;0.20;;
46282;SDS011;32017;43.700;11.820;2022-07-11T11:40:58;0.32;;;0.20;;
46282;SDS011;32017;43.700;11.820;2022-07-11T11:43:21;0.20;;;0.20;;
46282;SDS011;32017;43.700;11.820;2022-07-11T11:45:46;0.20;;;0.20;;
46282;SDS011;32017;43.700;11.820;2022-07-11T11:48:10;0.20;;;0.20;;
46282;SDS011;32017;43.700;11.820;2022-07-11T11:50:31;0.20;;;0.20;;
46282;SDS011;32017;43.700;11.820;2022-07-11T11:52:51;0.20;;;0.20;;
46282;SDS011;32017;43.700;11.820;2022-07-11T11:55:13;2.15;;;0.20;;
46282;SDS011;32017;43.700;11.820;2022-07-11T11:57:33;0.20;;;0.20;;
46282;SDS011;32017;43.700;11.820;2022-07-11T11:59:54;0.20;;;0.20;;
46282;SDS011;32017;43.700;11.820;2022-07-11T12:02:24;0.20;;;0.20;;
46282;SDS011;32017;43.700;11.820;2022-07-11T12:04:46;0.50;;;0.20;;
46282;SDS011;32017;43.700;11.820;2022-07-11T12:07:06;0.95;;;0.20;;
46282;SDS011;32017;43.700;11.820;2022-07-11T12:09:27;1.17;;;0.17;;
46282;SDS011;32017;43.700;11.820;2022-07-11T12:12:07;1.25;;;0.20;;
46282;SDS011;32017;43.700;11.820;2022-07-11T12:14:47;1.45;;;0.20;;
46282;SDS011;32017;43.700;11.820;2022-07-11T12:19:34;0.20;;;0.20;;
46282;SDS011;32017;43.700;11.820;2022-07-11T12:21:54;0.25;;;0.20;;
46282;SDS011;32017;43.700;11.820;2022-07-11T12:24:22;1.15;;;0.20;;
46282;SDS011;32017;43.700;11.820;2022-07-11T12:26:44;0.20;;;0.20;;
46282;SDS011;32017;43.700;11.820;2022-07-11T12:34:04;0.50;;;0.20;;
46282;SDS011;32017;43.700;11.820;2022-07-11T12:36:31;0.20;;;0.20;;
46282;SDS011;32017;43.700;11.820;2022-07-11T12:38:52;0.20;;;0.20;;
46282;SDS011;32017;43.700;11.820;2022-07-11T12:41:15;0.15;;;0.15;;
46282;SDS011;32017;43.700;11.820;2022-07-11T12:46:31;0.20;;;0.20;;
46282;SDS011;32017;43.700;11.820;2022-07-11T12:48:52;0.13;;;0.13;;
46282;SDS011;32017;43.700;11.820;2022-07-11T12:51:25;0.20;;;0.20;;
46282;SDS011;32017;43.700;11.820;2022-07-11T12:53:47;0.47;;;0.20;;
46282;SDS011;32017;43.700;11.820;2022-07-11T12:56:21;0.20;;;0.20;;
46282;SDS011;32017;43.700;11.820;2022-07-11T12:58:42;0.40;;;0.10;;
46282;SDS011;32017;43.700;11.820;2022-07-11T13:01:03;4.68;;;0.20;;
46282;SDS011;32017;43.700;11.820;2022-07-11T13:03:31;1.17;;;0.20;;
46282;SDS011;32017;43.700;11.820;2022-07-11T13:05:53;0.95;;;0.20;;
46282;SDS011;32017;43.700;11.820;2022-07-11T13:08:21;0.10;;;0.10;;
46282;SDS011;32017;43.700;11.820;2022-07-11T13:11:01;0.30;;;0.20;;
46282;SDS011;32017;43.700;11.820;2022-07-11T13:13:26;0.52;;;0.20;;
46282;SDS011;32017;43.700;11.820;2022-07-11T13:15:46;0.10;;;0.10;;
46282;SDS011;32017;43.700;11.820;2022-07-11T13:18:08;0.32;;;0.20;;
46282;SDS011;32017;43.700;11.820;2022-07-11T13:20:29;0.10;;;0.10;;
46282;SDS011;32017;43.700;11.820;2022-07-11T13:22:51;1.23;;;0.10;;
46282;SDS011;32017;43.700;11.820;2022-07-11T13:25:14;0.10;;;0.10;;
46282;SDS011;32017;43.700;11.820;2022-07-11T13:27:36;0.10;;;0.10;;
46282;SDS011;32017;43.700;11.820;2022-07-11T13:29:57;1.20;;;0.20;;
46282;SDS011;32017;43.700;11.820;2022-07-11T13:32:18;0.20;;;0.10;;
46282;SDS011;32017;43.700;11.820;2022-07-11T13:34:39;0.20;;;0.20;;
46282;SDS011;32017;43.700;11.820;2022-07-11T13:37:00;1.65;;;0.17;;
46282;SDS011;32017;43.700;11.820;2022-07-11T13:39:20;0.10;;;0.10;;
46282;SDS011;32017;43.700;11.820;2022-07-11T13:41:41;0.10;;;0.10;;
46282;SDS011;32017;43.700;11.820;2022-07-11T13:44:02;0.20;;;0.20;;
46282;SDS011;32017;43.700;11.820;2022-07-11T13:46:22;0.20;;;0.20;;
46282;SDS011;32017;43.700;11.820;2022-07-11T13:48:49;0.20;;;0.20;;
46282;SDS011;32017;43.700;11.820;2022-07-11T13:51:09;0.10;;;0.10;;
46282;SDS011;32017;43.700;11.820;2022-07-11T13:53:31;1.30;;;0.10;;
46282;SDS011;32017;43.700;11.820;2022-07-11T13:55:52;1.35;;;0.15;;
46282;SDS011;32017;43.700;11.820;2022-07-11T13:58:13;0.40;;;0.20;;
46282;SDS011;32017;43.700;11.820;2022-07-11T14:00:50;0.10;;;0.10;;
46282;SDS011;32017;43.700;11.820;2022-07-11T14:03:12;0.10;;;0.10;;
46282;SDS011;32017;43.700;11.820;2022-07-11T14:05:33;0.73;;;0.10;;
46282;SDS011;32017;43.700;11.820;2022-07-11T14:07:54;0.13;;;0.10;;
46282;SDS011;32017;43.700;11.820;2022-07-11T14:10:15;0.43;;;0.20;;
46282;SDS011;32017;43.700;11.820;2022-07-11T14:12:36;0.30;;;0.30;;
46282;SDS011;32017;43.700;11.820;2022-07-11T14:14:57;0.20;;;0.20;;
46282;SDS011;32017;43.700;11.820;2022-07-11T14:17:18;0.27;;;0.20;;
46282;SDS011;32017;43.700;11.820;2022-07-11T14:19:39;1.30;;;0.15;;
46282;SDS011;32017;43.700;11.820;2022-07-11T14:22:00;2.63;;;0.20;;
46282;SDS011;32017;43.700;11.820;2022-07-11T14:24:20;0.20;;;0.20;;
46282;SDS011;32017;43.700;11.820;2022-07-11T14:26:41;0.20;;;0.20;;
46282;SDS011;32017;43.700;11.820;2022-07-11T14:29:04;1.95;;;0.20;;
46282;SDS011;32017;43.700;11.820;2022-07-11T14:31:26;0.20;;;0.20;;
46282;SDS011;32017;43.700;11.820;2022-07-11T14:33:46;0.50;;;0.20;;
46282;SDS011;32017;43.700;11.820;2022-07-11T14:36:07;0.35;;;0.20;;
46282;SDS011;32017;43.700;11.820;2022-07-11T14:38:28;0.20;;;0.20;;
46282;SDS011;32017;43.700;11.820;2022-07-11T14:40:49;0.20;;;0.20;;
46282;SDS011;32017;43.700;11.820;2022-07-11T14:43:09;0.20;;;0.20;;
46282;SDS011;32017;43.700;11.820;2022-07-11T14:45:30;0.20;;;0.20;;
46282;SDS011;32017;43.700;11.820;2022-07-11T14:47:52;0.60;;;0.20;;
46282;SDS011;32017;43.700;11.820;2022-07-11T14:50:13;0.28;;;0.20;;
46282;SDS011;32017;43.700;11.820;2022-07-11T14:52:34;2.55;;;0.20;;
46282;SDS011;32017;43.700;11.820;2022-07-11T14:54:54;0.45;;;0.20;;
46282;SDS011;32017;43.700;11.820;2022-07-11T14:57:15;0.30;;;0.20;;
46282;SDS011;32017;43.700;11.820;2022-07-11T14:59:35;1.23;;;0.20;;
46282;SDS011;32017;43.700;11.820;2022-07-11T15:01:56;0.20;;;0.20;;
46282;SDS011;32017;43.700;11.820;2022-07-11T15:04:17;0.98;;;0.20;;
46282;SDS011;32017;43.700;11.820;2022-07-11T15:06:37;0.20;;;0.20;;
46282;SDS011;32017;43.700;11.820;2022-07-11T15:09:16;1.25;;;0.20;;
46282;SDS011;32017;43.700;11.820;2022-07-11T15:11:55;1.10;;;0.20;;
46282;SDS011;32017;43.700;11.820;2022-07-11T15:14:35;0.20;;;0.20;;
46282;SDS011;32017;43.700;11.820;2022-07-11T15:16:55;2.15;;;0.20;;
46282;SDS011;32017;43.700;11.820;2022-07-11T15:19:16;1.17;;;0.20;;
46282;SDS011;32017;43.700;11.820;2022-07-11T15:21:37;0.20;;;0.20;;
46282;SDS011;32017;43.700;11.820;2022-07-11T15:23:57;0.20;;;0.20;;
46282;SDS011;32017;43.700;11.820;2022-07-11T15:26:18;0.20;;;0.20;;
46282;SDS011;32017;43.700;11.820;2022-07-11T15:28:39;0.20;;;0.20;;
46282;SDS011;32017;43.700;11.820;2022-07-11T15:31:00;0.20;;;0.20;;
46282;SDS011;32017;43.700;11.820;2022-07-11T15:33:21;0.52;;;0.20;;
46282;SDS011;32017;43.700;11.820;2022-07-11T15:35:42;1.05;;;0.28;;
46282;SDS011;32017;43.700;11.820;2022-07-11T15:38:04;0.20;;;0.20;;
46282;SDS011;32017;43.700;11.820;2022-07-11T15:40:24;0.32;;;0.20;;
46282;SDS011;32017;43.700;11.820;2022-07-11T15:42:45;0.30;;;0.20;;
46282;SDS011;32017;43.700;11.820;2022-07-11T15:45:06;0.20;;;0.20;;
46282;SDS011;32017;43.700;11.820;2022-07-11T15:47:28;0.80;;;0.20;;
46282;SDS011;32017;43.700;11.820;2022-07-11T15:49:48;0.20;;;0.20;;
46282;SDS011;32017;43.700;11.820;2022-07-11T15:52:10;0.20;;;0.20;;
46282;SDS011;32017;43.700;11.820;2022-07-11T15:54:31;0.20;;;0.20;;
46282;SDS011;32017;43.700;11.820;2022-07-11T15:56:52;0.20;;;0.20;;
46282;SDS011;32017;43.700;11.820;2022-07-11T15:59:12;0.20;;;0.20;;
46282;SDS011;32017;43.700;11.820;2022-07-11T16:01:33;2.83;;;0.30;;
46282;SDS011;32017;43.700;11.820;2022-07-11T16:03:54;1.00;;;0.20;;
46282;SDS011;32017;43.700;11.820;2022-07-11T16:06:16;0.30;;;0.30;;
46282;SDS011;32017;43.700;11.820;2022-07-11T16:08:36;0.93;;;0.30;;
46282;SDS011;32017;43.700;11.820;2022-07-11T16:10:59;1.02;;;0.20;;
46282;SDS011;32017;43.700;11.820;2022-07-11T16:13:20;0.30;;;0.30;;
46282;SDS011;32017;43.700;11.820;2022-07-11T16:15:44;0.35;;;0.30;;
46282;SDS011;32017;43.700;11.820;2022-07-11T16:18:06;0.35;;;0.30;;
46282;SDS011;32017;43.700;11.820;2022-07-11T16:20:27;1.95;;;0.30;;
46282;SDS011;32017;43.700;11.820;2022-07-11T16:22:48;2.75;;;0.40;;
46282;SDS011;32017;43.700;11.820;2022-07-11T16:25:09;0.20;;;0.20;;
46282;SDS011;32017;43.700;11.820;2022-07-11T16:27:30;0.30;;;0.30;;
46282;SDS011;32017;43.700;11.820;2022-07-11T16:29:50;2.17;;;0.30;;
46282;SDS011;32017;43.700;11.820;2022-07-11T16:32:11;1.15;;;0.40;;